Terminal Aerodrome Forecast
Issued by NWS Mobile, AL

Home | Current Version | Previous Version | Text Only | Print | Product List | Glossary On
Versions: 1 2 3 4 5 6 7 8 9 10 11 12 13 14 15 16 17 18 19 20 21 22 23 24
000
FTUS44 KMOB 251720
TAFPNS
TAF
KPNS 251720Z 2518/2618 02009KT P6SM VCTS BKN030CB
      TEMPO 2520/2524 P6SM -TSRA BKN020CB
     FM260000 33004KT P6SM VCTS SCT030CB BKN080
      TEMPO 2600/2603 5SM -TSRA BKN020CB
     FM260300 36003KT P6SM SCT035
     FM260900 01004KT P6SM FEW030=

USA.gov is the U.S. government's official web portal to all federal, state and local government web resources and services.